PWSweather.com
Personal Weather Stations
Station Observations
KTXROWLE6
Ravens Nest, Rowlett, TX 75089

Ravens NestRowlett, TX 75089

Lat: 32.93105, Lon: -96.57368

Elevation: 556

Station Type: Davis Vantage Pro2 6152

http://rowlett.ws

High Low Average
Temperature 89.0°F31.7°C 69.4°F20.8°C 79.8°F26.6°C
Dew Point 67.6°F19.8°C 54.3°F12.4°C 61.9°F16.6°C
Winds 8.1 mph 13.0 kmh 1.6 mph 2.6 kmh 5.0 mph SW8.0 kmh SW
Wind Gusts 21.0 mph33.8 kmh 5.0 mph8.0 kmh 11.0 mph17.7 kmh
Humidity 64% 47% 55%
Pressure 30.05 in1017.6 mb 29.83 in1010.2 mb -
Precipitation 0.00 in0.0 mm - -
Hour Temp Dew Point Humidity Winds Wind Gusts Pressure Precip Precip Rate Daily Precip Total
12:00 AM 75.1°F23.9°C 54.6°F12.6°C 49% 3.6 mph SSW5.8 kmh SSW 8.0 mph12.9 kmh 30.04 in1017.3 mb 0.00 in0.0 mm 0.00 in0.0 mm 0.00 in0.0 mm
12:05 AM 74.9°F23.8°C 54.4°F12.4°C 49% 3.9 mph SW6.3 kmh SW 8.0 mph12.9 kmh 30.04 in1017.3 mb 0.00 in0.0 mm 0.00 in0.0 mm 0.00 in0.0 mm
12:10 AM 74.8°F23.8°C 54.9°F12.7°C 50% 4.5 mph SW7.2 kmh SW 9.0 mph14.5 kmh 30.04 in1017.3 mb 0.00 in0.0 mm 0.00 in0.0 mm 0.00 in0.0 mm
12:15 AM 74.6°F23.7°C 54.7°F12.6°C 50% 4.1 mph SW6.6 kmh SW 9.0 mph14.5 kmh 30.04 in1017.3 mb 0.00 in0.0 mm 0.00 in0.0 mm 0.00 in0.0 mm
12:20 AM 74.6°F23.7°C 54.7°F12.6°C 50% 3.6 mph SSW5.8 kmh SSW 9.0 mph14.5 kmh 30.03 in1016.9 mb 0.00 in0.0 mm 0.00 in0.0 mm 0.00 in0.0 mm
12:25 AM 74.6°F23.7°C 54.7°F12.6°C 50% 4.9 mph SW7.9 kmh SW 9.0 mph14.5 kmh 30.04 in1017.3 mb 0.00 in0.0 mm 0.00 in0.0 mm 0.00 in0.0 mm
12:30 AM 74.6°F23.7°C 54.7°F12.6°C 50% 5.1 mph SW8.2 kmh SW 9.0 mph14.5 kmh 30.03 in1016.9 mb 0.00 in0.0 mm 0.00 in0.0 mm 0.00 in0.0 mm
12:35 AM 74.4°F23.6°C 54.5°F12.5°C 50% 3.3 mph SW5.3 kmh SW 8.0 mph12.9 kmh 30.03 in1016.9 mb 0.00 in0.0 mm 0.00 in0.0 mm 0.00 in0.0 mm
12:40 AM 74.4°F23.6°C 54.5°F12.5°C 50% 3.1 mph SW5.0 kmh SW 7.0 mph11.3 kmh 30.04 in1017.3 mb 0.00 in0.0 mm 0.00 in0.0 mm 0.00 in0.0 mm
12:45 AM 74.2°F23.4°C 54.9°F12.7°C 51% 2.6 mph SSW4.2 kmh SSW 6.0 mph9.7 kmh 30.04 in1017.3 mb 0.00 in0.0 mm 0.00 in0.0 mm 0.00 in0.0 mm
12:50 AM 73.9°F23.3°C 54.6°F12.6°C 51% 2.3 mph SW3.7 kmh SW 6.0 mph9.7 kmh 30.04 in1017.3 mb 0.00 in0.0 mm 0.00 in0.0 mm 0.00 in0.0 mm
12:55 AM 73.6°F23.1°C 54.9°F12.7°C 52% 1.9 mph SW3.1 kmh SW 4.0 mph6.4 kmh 30.04 in1017.3 mb 0.00 in0.0 mm 0.00 in0.0 mm 0.00 in0.0 mm
01:00 AM 73.8°F23.2°C 54.5°F12.5°C 51% 3.9 mph SSW6.3 kmh SSW 7.0 mph11.3 kmh 30.04 in1017.3 mb 0.00 in0.0 mm 0.00 in0.0 mm 0.00 in0.0 mm
01:05 AM 73.9°F23.3°C 54.6°F12.6°C 51% 2.0 mph SSW3.2 kmh SSW 7.0 mph11.3 kmh 30.04 in1017.3 mb 0.00 in0.0 mm 0.00 in0.0 mm 0.00 in0.0 mm
01:10 AM 73.8°F23.2°C 54.5°F12.5°C 51% 2.4 mph SSW3.9 kmh SSW 5.0 mph8.0 kmh 30.04 in1017.3 mb 0.00 in0.0 mm 0.00 in0.0 mm 0.00 in0.0 mm
01:15 AM 73.8°F23.2°C 54.5°F12.5°C 51% 4.0 mph SSW6.4 kmh SSW 9.0 mph14.5 kmh 30.04 in1017.3 mb 0.00 in0.0 mm 0.00 in0.0 mm 0.00 in0.0 mm
01:20 AM 73.9°F23.3°C 54.6°F12.6°C 51% 5.3 mph SW8.5 kmh SW 9.0 mph14.5 kmh 30.04 in1017.3 mb 0.00 in0.0 mm 0.00 in0.0 mm 0.00 in0.0 mm
01:25 AM 73.8°F23.2°C 54.5°F12.5°C 51% 4.5 mph SSW7.2 kmh SSW 9.0 mph14.5 kmh 30.04 in1017.3 mb 0.00 in0.0 mm 0.00 in0.0 mm 0.00 in0.0 mm
01:30 AM 73.8°F23.2°C 54.5°F12.5°C 51% 4.7 mph SSW7.6 kmh SSW 8.0 mph12.9 kmh 30.04 in1017.3 mb 0.00 in0.0 mm 0.00 in0.0 mm 0.00 in0.0 mm
01:35 AM 73.8°F23.2°C 54.5°F12.5°C 51% 3.5 mph SSW5.6 kmh SSW 8.0 mph12.9 kmh 30.04 in1017.3 mb 0.00 in0.0 mm 0.00 in0.0 mm 0.00 in0.0 mm
01:40 AM 73.7°F23.2°C 54.4°F12.4°C 51% 4.4 mph SSW7.1 kmh SSW 9.0 mph14.5 kmh 30.04 in1017.3 mb 0.00 in0.0 mm 0.00 in0.0 mm 0.00 in0.0 mm
01:45 AM 73.5°F23.1°C 54.8°F12.7°C 52% 3.8 mph SSW6.1 kmh SSW 9.0 mph14.5 kmh 30.04 in1017.3 mb 0.00 in0.0 mm 0.00 in0.0 mm 0.00 in0.0 mm
01:50 AM 73.4°F23.0°C 54.7°F12.6°C 52% 3.7 mph SSW6.0 kmh SSW 7.0 mph11.3 kmh 30.04 in1017.3 mb 0.00 in0.0 mm 0.00 in0.0 mm 0.00 in0.0 mm
01:55 AM 73.3°F22.9°C 54.6°F12.6°C 52% 3.6 mph SSW5.8 kmh SSW 7.0 mph11.3 kmh 30.04 in1017.3 mb 0.00 in0.0 mm 0.00 in0.0 mm 0.00 in0.0 mm
02:00 AM 73.1°F22.8°C 54.4°F12.4°C 52% 3.1 mph SSW5.0 kmh SSW 8.0 mph12.9 kmh 30.05 in1017.6 mb 0.00 in0.0 mm 0.00 in0.0 mm 0.00 in0.0 mm
02:05 AM 73.1°F22.8°C 54.4°F12.4°C 52% 4.1 mph SW6.6 kmh SW 8.0 mph12.9 kmh 30.05 in1017.6 mb 0.00 in0.0 mm 0.00 in0.0 mm 0.00 in0.0 mm
02:10 AM 73.1°F22.8°C 54.9°F12.7°C 53% 3.7 mph SW6.0 kmh SW 7.0 mph11.3 kmh 30.05 in1017.6 mb 0.00 in0.0 mm 0.00 in0.0 mm 0.00 in0.0 mm
02:15 AM 73.0°F22.8°C 54.3°F12.4°C 52% 3.1 mph SSW5.0 kmh SSW 7.0 mph11.3 kmh 30.05 in1017.6 mb 0.00 in0.0 mm 0.00 in0.0 mm 0.00 in0.0 mm
02:20 AM 72.9°F22.7°C 54.8°F12.7°C 53% 2.4 mph SSW3.9 kmh SSW 6.0 mph9.7 kmh 30.05 in1017.6 mb 0.00 in0.0 mm 0.00 in0.0 mm 0.00 in0.0 mm
02:25 AM 72.7°F22.6°C 54.6°F12.6°C 53% 2.9 mph SSW4.7 kmh SSW 6.0 mph9.7 kmh 30.05 in1017.6 mb 0.00 in0.0 mm 0.00 in0.0 mm 0.00 in0.0 mm
02:30 AM 72.5°F22.5°C 54.9°F12.7°C 54% 2.7 mph SSW4.3 kmh SSW 6.0 mph9.7 kmh 30.05 in1017.6 mb 0.00 in0.0 mm 0.00 in0.0 mm 0.00 in0.0 mm
02:35 AM 72.3°F22.4°C 55.2°F12.9°C 55% 2.2 mph SSW3.5 kmh SSW 5.0 mph8.0 kmh 30.05 in1017.6 mb 0.00 in0.0 mm 0.00 in0.0 mm 0.00 in0.0 mm
02:40 AM 72.2°F22.3°C 55.1°F12.8°C 55% 3.5 mph SSW5.6 kmh SSW 7.0 mph11.3 kmh 30.05 in1017.6 mb 0.00 in0.0 mm 0.00 in0.0 mm 0.00 in0.0 mm
02:45 AM 72.1°F22.3°C 55.0°F12.8°C 55% 4.3 mph SW6.9 kmh SW 8.0 mph12.9 kmh 30.05 in1017.6 mb 0.00 in0.0 mm 0.00 in0.0 mm 0.00 in0.0 mm
02:50 AM 72.1°F22.3°C 55.0°F12.8°C 55% 4.1 mph SSW6.6 kmh SSW 8.0 mph12.9 kmh 30.04 in1017.3 mb 0.00 in0.0 mm 0.00 in0.0 mm 0.00 in0.0 mm
02:55 AM 72.1°F22.3°C 55.0°F12.8°C 55% 4.2 mph SW6.8 kmh SW 7.0 mph11.3 kmh 30.04 in1017.3 mb 0.00 in0.0 mm 0.00 in0.0 mm 0.00 in0.0 mm
03:00 AM 72.1°F22.3°C 55.0°F12.8°C 55% 4.1 mph SSW6.6 kmh SSW 8.0 mph12.9 kmh 30.04 in1017.3 mb 0.00 in0.0 mm 0.00 in0.0 mm 0.00 in0.0 mm
03:05 AM 72.1°F22.3°C 55.0°F12.8°C 55% 3.9 mph SSW6.3 kmh SSW 8.0 mph12.9 kmh 30.04 in1017.3 mb 0.00 in0.0 mm 0.00 in0.0 mm 0.00 in0.0 mm
03:10 AM 71.9°F22.2°C 54.8°F12.7°C 55% 3.8 mph SSW6.1 kmh SSW 7.0 mph11.3 kmh 30.03 in1016.9 mb 0.00 in0.0 mm 0.00 in0.0 mm 0.00 in0.0 mm
03:15 AM 71.8°F22.1°C 55.2°F12.9°C 56% 3.7 mph SSW6.0 kmh SSW 7.0 mph11.3 kmh 30.03 in1016.9 mb 0.00 in0.0 mm 0.00 in0.0 mm 0.00 in0.0 mm
03:20 AM 71.7°F22.1°C 55.2°F12.9°C 56% 3.6 mph SW5.8 kmh SW 7.0 mph11.3 kmh 30.03 in1016.9 mb 0.00 in0.0 mm 0.00 in0.0 mm 0.00 in0.0 mm
03:25 AM 71.7°F22.1°C 55.2°F12.9°C 56% 3.4 mph SW5.5 kmh SW 7.0 mph11.3 kmh 30.04 in1017.3 mb 0.00 in0.0 mm 0.00 in0.0 mm 0.00 in0.0 mm
03:30 AM 71.6°F22.0°C 55.1°F12.8°C 56% 3.7 mph SW6.0 kmh SW 7.0 mph11.3 kmh 30.03 in1016.9 mb 0.00 in0.0 mm 0.00 in0.0 mm 0.00 in0.0 mm
03:35 AM 71.5°F21.9°C 55.0°F12.8°C 56% 4.4 mph SW7.1 kmh SW 8.0 mph12.9 kmh 30.03 in1016.9 mb 0.00 in0.0 mm 0.00 in0.0 mm 0.00 in0.0 mm
03:40 AM 71.6°F22.0°C 55.1°F12.8°C 56% 4.5 mph SSW7.2 kmh SSW 8.0 mph12.9 kmh 30.03 in1016.9 mb 0.00 in0.0 mm 0.00 in0.0 mm 0.00 in0.0 mm
03:45 AM 71.7°F22.1°C 55.2°F12.9°C 56% 5.2 mph SW8.4 kmh SW 10.0 mph16.1 kmh 30.03 in1016.9 mb 0.00 in0.0 mm 0.00 in0.0 mm 0.00 in0.0 mm
03:50 AM 71.6°F22.0°C 55.5°F13.1°C 57% 4.9 mph SSW7.9 kmh SSW 10.0 mph16.1 kmh 30.02 in1016.6 mb 0.00 in0.0 mm 0.00 in0.0 mm 0.00 in0.0 mm
03:55 AM 71.5°F21.9°C 55.5°F13.1°C 57% 4.4 mph SSW7.1 kmh SSW 9.0 mph14.5 kmh 30.02 in1016.6 mb 0.00 in0.0 mm 0.00 in0.0 mm 0.00 in0.0 mm
04:00 AM 71.4°F21.9°C 55.4°F13.0°C 57% 4.8 mph SSW7.7 kmh SSW 10.0 mph16.1 kmh 30.02 in1016.6 mb 0.00 in0.0 mm 0.00 in0.0 mm 0.00 in0.0 mm
04:05 AM 71.2°F21.8°C 55.7°F13.2°C 58% 3.6 mph SW5.8 kmh SW 10.0 mph16.1 kmh 30.02 in1016.6 mb 0.00 in0.0 mm 0.00 in0.0 mm 0.00 in0.0 mm
04:10 AM 71.1°F21.7°C 55.6°F13.1°C 58% 4.5 mph SW7.2 kmh SW 7.0 mph11.3 kmh 30.02 in1016.6 mb 0.00 in0.0 mm 0.00 in0.0 mm 0.00 in0.0 mm
04:15 AM 71.1°F21.7°C 55.6°F13.1°C 58% 4.5 mph SW7.2 kmh SW 9.0 mph14.5 kmh 30.02 in1016.6 mb 0.00 in0.0 mm 0.00 in0.0 mm 0.00 in0.0 mm
04:20 AM 70.9°F21.6°C 55.8°F13.2°C 59% 3.5 mph SW5.6 kmh SW 9.0 mph14.5 kmh 30.02 in1016.6 mb 0.00 in0.0 mm 0.00 in0.0 mm 0.00 in0.0 mm
04:25 AM 71.0°F21.7°C 55.9°F13.3°C 59% 4.0 mph SW6.4 kmh SW 8.0 mph12.9 kmh 30.02 in1016.6 mb 0.00 in0.0 mm 0.00 in0.0 mm 0.00 in0.0 mm
04:30 AM 70.8°F21.6°C 55.8°F13.2°C 59% 3.5 mph SW5.6 kmh SW 8.0 mph12.9 kmh 30.02 in1016.6 mb 0.00 in0.0 mm 0.00 in0.0 mm 0.00 in0.0 mm
04:35 AM 70.8°F21.6°C 55.8°F13.2°C 59% 3.9 mph SW6.3 kmh SW 7.0 mph11.3 kmh 30.02 in1016.6 mb 0.00 in0.0 mm 0.00 in0.0 mm 0.00 in0.0 mm
04:40 AM 70.8°F21.6°C 55.8°F13.2°C 59% 3.8 mph SW6.1 kmh SW 7.0 mph11.3 kmh 30.02 in1016.6 mb 0.00 in0.0 mm 0.00 in0.0 mm 0.00 in0.0 mm
04:45 AM 70.7°F21.5°C 56.1°F13.4°C 60% 2.6 mph SSW4.2 kmh SSW 7.0 mph11.3 kmh 30.03 in1016.9 mb 0.00 in0.0 mm 0.00 in0.0 mm 0.00 in0.0 mm
04:50 AM 70.7°F21.5°C 56.1°F13.4°C 60% 3.0 mph SW4.8 kmh SW 6.0 mph9.7 kmh 30.03 in1016.9 mb 0.00 in0.0 mm 0.00 in0.0 mm 0.00 in0.0 mm
04:55 AM 70.4°F21.3°C 56.3°F13.5°C 61% 2.0 mph SW3.2 kmh SW 6.0 mph9.7 kmh 30.03 in1016.9 mb 0.00 in0.0 mm 0.00 in0.0 mm 0.00 in0.0 mm
05:00 AM 70.2°F21.2°C 56.6°F13.7°C 62% 2.3 mph SSW3.7 kmh SSW 5.0 mph8.0 kmh 30.03 in1016.9 mb 0.00 in0.0 mm 0.00 in0.0 mm 0.00 in0.0 mm
05:05 AM 70.1°F21.2°C 56.5°F13.6°C 62% 2.4 mph SSW3.9 kmh SSW 5.0 mph8.0 kmh 30.03 in1016.9 mb 0.00 in0.0 mm 0.00 in0.0 mm 0.00 in0.0 mm
05:10 AM 70.0°F21.1°C 56.8°F13.8°C 63% 2.1 mph SW3.4 kmh SW 5.0 mph8.0 kmh 30.03 in1016.9 mb 0.00 in0.0 mm 0.00 in0.0 mm 0.00 in0.0 mm
05:15 AM 69.9°F21.1°C 56.7°F13.7°C 63% 2.1 mph SW3.4 kmh SW 6.0 mph9.7 kmh 30.02 in1016.6 mb 0.00 in0.0 mm 0.00 in0.0 mm 0.00 in0.0 mm
05:20 AM 70.0°F21.1°C 56.8°F13.8°C 63% 2.5 mph SW4.0 kmh SW 6.0 mph9.7 kmh 30.02 in1016.6 mb 0.00 in0.0 mm 0.00 in0.0 mm 0.00 in0.0 mm
05:25 AM 69.9°F21.1°C 56.7°F13.7°C 63% 1.6 mph SW2.6 kmh SW 5.0 mph8.0 kmh 30.02 in1016.6 mb 0.00 in0.0 mm 0.00 in0.0 mm 0.00 in0.0 mm
05:30 AM 69.8°F21.0°C 56.6°F13.7°C 63% 2.2 mph SSW3.5 kmh SSW 5.0 mph8.0 kmh 30.03 in1016.9 mb 0.00 in0.0 mm 0.00 in0.0 mm 0.00 in0.0 mm
05:35 AM 69.8°F21.0°C 56.6°F13.7°C 63% 2.2 mph SSW3.5 kmh SSW 5.0 mph8.0 kmh 30.03 in1016.9 mb 0.00 in0.0 mm 0.00 in0.0 mm 0.00 in0.0 mm
05:40 AM 69.7°F20.9°C 56.5°F13.6°C 63% 2.4 mph SW3.9 kmh SW 5.0 mph8.0 kmh 30.02 in1016.6 mb 0.00 in0.0 mm 0.00 in0.0 mm 0.00 in0.0 mm
05:45 AM 69.6°F20.9°C 56.4°F13.6°C 63% 3.2 mph SW5.1 kmh SW 7.0 mph11.3 kmh 30.02 in1016.6 mb 0.00 in0.0 mm 0.00 in0.0 mm 0.00 in0.0 mm
05:50 AM 69.7°F20.9°C 56.5°F13.6°C 63% 3.7 mph SW6.0 kmh SW 7.0 mph11.3 kmh 30.03 in1016.9 mb 0.00 in0.0 mm 0.00 in0.0 mm 0.00 in0.0 mm
05:55 AM 69.7°F20.9°C 56.5°F13.6°C 63% 3.8 mph SW6.1 kmh SW 6.0 mph9.7 kmh 30.03 in1016.9 mb 0.00 in0.0 mm 0.00 in0.0 mm 0.00 in0.0 mm
06:00 AM 69.6°F20.9°C 56.4°F13.6°C 63% 3.4 mph SW5.5 kmh SW 7.0 mph11.3 kmh 30.03 in1016.9 mb 0.00 in0.0 mm 0.00 in0.0 mm 0.00 in0.0 mm
06:05 AM 69.4°F20.8°C 56.7°F13.7°C 64% 2.9 mph SW4.7 kmh SW 8.0 mph12.9 kmh 30.03 in1016.9 mb 0.00 in0.0 mm 0.00 in0.0 mm 0.00 in0.0 mm
06:10 AM 69.5°F20.8°C 56.8°F13.8°C 64% 3.2 mph SW5.1 kmh SW 8.0 mph12.9 kmh 30.03 in1016.9 mb 0.00 in0.0 mm 0.00 in0.0 mm 0.00 in0.0 mm
06:15 AM 69.5°F20.8°C 56.3°F13.5°C 63% 3.6 mph SW5.8 kmh SW 8.0 mph12.9 kmh 30.03 in1016.9 mb 0.00 in0.0 mm 0.00 in0.0 mm 0.00 in0.0 mm
06:20 AM 69.7°F20.9°C 56.5°F13.6°C 63% 4.3 mph SW6.9 kmh SW 8.0 mph12.9 kmh 30.03 in1016.9 mb 0.00 in0.0 mm 0.00 in0.0 mm 0.00 in0.0 mm
06:25 AM 69.9°F21.1°C 56.7°F13.7°C 63% 3.7 mph SW6.0 kmh SW 8.0 mph12.9 kmh 30.04 in1017.3 mb 0.00 in0.0 mm 0.00 in0.0 mm 0.00 in0.0 mm
06:30 AM 70.0°F21.1°C 56.4°F13.6°C 62% 4.3 mph SW6.9 kmh SW 7.0 mph11.3 kmh 30.04 in1017.3 mb 0.00 in0.0 mm 0.00 in0.0 mm 0.00 in0.0 mm
06:35 AM 70.1°F21.2°C 56.5°F13.6°C 62% 3.7 mph SW6.0 kmh SW 8.0 mph12.9 kmh 30.04 in1017.3 mb 0.00 in0.0 mm 0.00 in0.0 mm 0.00 in0.0 mm
06:40 AM 70.1°F21.2°C 56.5°F13.6°C 62% 4.7 mph SSW7.6 kmh SSW 8.0 mph12.9 kmh 30.03 in1016.9 mb 0.00 in0.0 mm 0.00 in0.0 mm 0.00 in0.0 mm
06:45 AM 69.9°F21.1°C 56.7°F13.7°C 63% 3.4 mph SSW5.5 kmh SSW 7.0 mph11.3 kmh 30.04 in1017.3 mb 0.00 in0.0 mm 0.00 in0.0 mm 0.00 in0.0 mm
06:50 AM 69.7°F20.9°C 56.5°F13.6°C 63% 2.8 mph SSW4.5 kmh SSW 6.0 mph9.7 kmh 30.04 in1017.3 mb 0.00 in0.0 mm 0.00 in0.0 mm 0.00 in0.0 mm
06:55 AM 69.6°F20.9°C 56.4°F13.6°C 63% 2.9 mph SW4.7 kmh SW 8.0 mph12.9 kmh 30.04 in1017.3 mb 0.00 in0.0 mm 0.00 in0.0 mm 0.00 in0.0 mm
07:00 AM 69.7°F20.9°C 56.5°F13.6°C 63% 3.4 mph SSW5.5 kmh SSW 8.0 mph12.9 kmh 30.04 in1017.3 mb 0.00 in0.0 mm 0.00 in0.0 mm 0.00 in0.0 mm
07:05 AM 69.9°F21.1°C 56.7°F13.7°C 63% 2.8 mph SSW4.5 kmh SSW 6.0 mph9.7 kmh 30.04 in1017.3 mb 0.00 in0.0 mm 0.00 in0.0 mm 0.00 in0.0 mm
07:10 AM 70.0°F21.1°C 56.4°F13.6°C 62% 3.3 mph SW5.3 kmh SW 7.0 mph11.3 kmh 30.04 in1017.3 mb 0.00 in0.0 mm 0.00 in0.0 mm 0.00 in0.0 mm
07:15 AM 70.1°F21.2°C 56.5°F13.6°C 62% 3.3 mph SW5.3 kmh SW 9.0 mph14.5 kmh 30.04 in1017.3 mb 0.00 in0.0 mm 0.00 in0.0 mm 0.00 in0.0 mm
07:20 AM 70.2°F21.2°C 56.6°F13.7°C 62% 3.1 mph SSW5.0 kmh SSW 9.0 mph14.5 kmh 30.04 in1017.3 mb 0.00 in0.0 mm 0.00 in0.0 mm 0.00 in0.0 mm
07:25 AM 70.2°F21.2°C 57.0°F13.9°C 63% 2.8 mph SW4.5 kmh SW 6.0 mph9.7 kmh 30.05 in1017.6 mb 0.00 in0.0 mm 0.00 in0.0 mm 0.00 in0.0 mm
07:30 AM 70.3°F21.3°C 56.7°F13.7°C 62% 3.1 mph SSW5.0 kmh SSW 7.0 mph11.3 kmh 30.05 in1017.6 mb 0.00 in0.0 mm 0.00 in0.0 mm 0.00 in0.0 mm
07:35 AM 70.7°F21.5°C 57.0°F13.9°C 62% 3.2 mph SW5.1 kmh SW 7.0 mph11.3 kmh 30.05 in1017.6 mb 0.00 in0.0 mm 0.00 in0.0 mm 0.00 in0.0 mm
07:40 AM 71.0°F21.7°C 56.9°F13.8°C 61% 4.0 mph SW6.4 kmh SW 7.0 mph11.3 kmh 30.05 in1017.6 mb 0.00 in0.0 mm 0.00 in0.0 mm 0.00 in0.0 mm
07:45 AM 71.2°F21.8°C 57.0°F13.9°C 61% 4.0 mph SW6.4 kmh SW 7.0 mph11.3 kmh 30.04 in1017.3 mb 0.00 in0.0 mm 0.00 in0.0 mm 0.00 in0.0 mm
07:50 AM 71.0°F21.7°C 57.3°F14.1°C 62% 4.4 mph SSW7.1 kmh SSW 8.0 mph12.9 kmh 30.04 in1017.3 mb 0.00 in0.0 mm 0.00 in0.0 mm 0.00 in0.0 mm
07:55 AM 71.0°F21.7°C 57.3°F14.1°C 62% 4.0 mph SW6.4 kmh SW 8.0 mph12.9 kmh 30.04 in1017.3 mb 0.00 in0.0 mm 0.00 in0.0 mm 0.00 in0.0 mm
08:00 AM 71.0°F21.7°C 57.3°F14.1°C 62% 3.5 mph SW5.6 kmh SW 7.0 mph11.3 kmh 30.04 in1017.3 mb 0.00 in0.0 mm 0.00 in0.0 mm 0.00 in0.0 mm
08:05 AM 71.4°F21.9°C 57.2°F14.0°C 61% 4.4 mph SW7.1 kmh SW 7.0 mph11.3 kmh 30.04 in1017.3 mb 0.00 in0.0 mm 0.00 in0.0 mm 0.00 in0.0 mm
08:10 AM 71.5°F21.9°C 57.8°F14.3°C 62% 5.3 mph SW8.5 kmh SW 9.0 mph14.5 kmh 30.04 in1017.3 mb 0.00 in0.0 mm 0.00 in0.0 mm 0.00 in0.0 mm
08:15 AM 71.7°F22.1°C 57.5°F14.2°C 61% 4.4 mph SW7.1 kmh SW 9.0 mph14.5 kmh 30.04 in1017.3 mb 0.00 in0.0 mm 0.00 in0.0 mm 0.00 in0.0 mm
08:20 AM 72.0°F22.2°C 57.3°F14.1°C 60% 4.8 mph SW7.7 kmh SW 9.0 mph14.5 kmh 30.03 in1016.9 mb 0.00 in0.0 mm 0.00 in0.0 mm 0.00 in0.0 mm
08:25 AM 72.0°F22.2°C 57.8°F14.3°C 61% 6.1 mph SW9.8 kmh SW 10.0 mph16.1 kmh 30.03 in1016.9 mb 0.00 in0.0 mm 0.00 in0.0 mm 0.00 in0.0 mm
08:30 AM 72.1°F22.3°C 57.9°F14.4°C 61% 4.4 mph SW7.1 kmh SW 10.0 mph16.1 kmh 30.04 in1017.3 mb 0.00 in0.0 mm 0.00 in0.0 mm 0.00 in0.0 mm
08:35 AM 72.3°F22.4°C 57.6°F14.2°C 60% 5.9 mph SW9.5 kmh SW 10.0 mph16.1 kmh 30.03 in1016.9 mb 0.00 in0.0 mm 0.00 in0.0 mm 0.00 in0.0 mm
08:40 AM 72.6°F22.6°C 58.4°F14.7°C 61% 4.7 mph SW7.6 kmh SW 10.0 mph16.1 kmh 30.03 in1016.9 mb 0.00 in0.0 mm 0.00 in0.0 mm 0.00 in0.0 mm
08:45 AM 72.8°F22.7°C 58.6°F14.8°C 61% 5.4 mph SW8.7 kmh SW 11.0 mph17.7 kmh 30.03 in1016.9 mb 0.00 in0.0 mm 0.00 in0.0 mm 0.00 in0.0 mm
08:50 AM 73.0°F22.8°C 58.7°F14.8°C 61% 6.2 mph SW10.0 kmh SW 11.0 mph17.7 kmh 30.03 in1016.9 mb 0.00 in0.0 mm 0.00 in0.0 mm 0.00 in0.0 mm
08:55 AM 73.2°F22.9°C 58.5°F14.7°C 60% 5.8 mph SW9.3 kmh SW 11.0 mph17.7 kmh 30.02 in1016.6 mb 0.00 in0.0 mm 0.00 in0.0 mm 0.00 in0.0 mm
09:00 AM 73.8°F23.2°C 58.6°F14.8°C 59% 6.3 mph SW10.1 kmh SW 12.0 mph19.3 kmh 30.02 in1016.6 mb 0.00 in0.0 mm 0.00 in0.0 mm 0.00 in0.0 mm
09:05 AM 74.2°F23.4°C 58.0°F14.4°C 57% 7.8 mph SW12.6 kmh SW 13.0 mph20.9 kmh 30.02 in1016.6 mb 0.00 in0.0 mm 0.00 in0.0 mm 0.00 in0.0 mm
09:10 AM 74.9°F23.8°C 58.6°F14.8°C 57% 6.2 mph SW10.0 kmh SW 14.0 mph22.5 kmh 30.02 in1016.6 mb 0.00 in0.0 mm 0.00 in0.0 mm 0.00 in0.0 mm
09:15 AM 75.4°F24.1°C 58.6°F14.8°C 56% 7.1 mph SW11.4 kmh SW 14.0 mph22.5 kmh 30.02 in1016.6 mb 0.00 in0.0 mm 0.00 in0.0 mm 0.00 in0.0 mm
09:20 AM 76.0°F24.4°C 58.6°F14.8°C 55% 3.8 mph SW6.1 kmh SW 14.0 mph22.5 kmh 30.02 in1016.6 mb 0.00 in0.0 mm 0.00 in0.0 mm 0.00 in0.0 mm
09:25 AM 75.9°F24.4°C 57.5°F14.2°C 53% 6.5 mph SW10.5 kmh SW 12.0 mph19.3 kmh 30.02 in1016.6 mb 0.00 in0.0 mm 0.00 in0.0 mm 0.00 in0.0 mm
09:30 AM 76.2°F24.6°C 57.3°F14.1°C 52% 6.5 mph SW10.5 kmh SW 17.0 mph27.4 kmh 30.02 in1016.6 mb 0.00 in0.0 mm 0.00 in0.0 mm 0.00 in0.0 mm
09:35 AM 76.1°F24.5°C 57.7°F14.3°C 53% 6.4 mph SW10.3 kmh SW 17.0 mph27.4 kmh 30.01 in1016.3 mb 0.00 in0.0 mm 0.00 in0.0 mm 0.00 in0.0 mm
09:40 AM 76.3°F24.6°C 57.9°F14.4°C 53% 6.5 mph SW10.5 kmh SW 14.0 mph22.5 kmh 30.01 in1016.3 mb 0.00 in0.0 mm 0.00 in0.0 mm 0.00 in0.0 mm
09:45 AM 76.5°F24.7°C 58.6°F14.8°C 54% 5.4 mph SW8.7 kmh SW 12.0 mph19.3 kmh 30.01 in1016.3 mb 0.00 in0.0 mm 0.00 in0.0 mm 0.00 in0.0 mm
09:50 AM 76.9°F24.9°C 58.4°F14.7°C 53% 5.7 mph SW9.2 kmh SW 15.0 mph24.1 kmh 30.01 in1016.3 mb 0.00 in0.0 mm 0.00 in0.0 mm 0.00 in0.0 mm
09:55 AM 77.3°F25.2°C 59.3°F15.2°C 54% 5.9 mph SW9.5 kmh SW 15.0 mph24.1 kmh 30.00 in1015.9 mb 0.00 in0.0 mm 0.00 in0.0 mm 0.00 in0.0 mm
10:00 AM 77.7°F25.4°C 59.7°F15.4°C 54% 4.4 mph SW7.1 kmh SW 12.0 mph19.3 kmh 30.00 in1015.9 mb 0.00 in0.0 mm 0.00 in0.0 mm 0.00 in0.0 mm
10:05 AM 77.7°F25.4°C 59.7°F15.4°C 54% 4.1 mph SW6.6 kmh SW 10.0 mph16.1 kmh 30.00 in1015.9 mb 0.00 in0.0 mm 0.00 in0.0 mm 0.00 in0.0 mm
10:10 AM 77.7°F25.4°C 60.2°F15.7°C 55% 6.1 mph SW9.8 kmh SW 14.0 mph22.5 kmh 30.00 in1015.9 mb 0.00 in0.0 mm 0.00 in0.0 mm 0.00 in0.0 mm
10:15 AM 77.6°F25.3°C 60.6°F15.9°C 56% 5.8 mph SW9.3 kmh SW 14.0 mph22.5 kmh 30.00 in1015.9 mb 0.00 in0.0 mm 0.00 in0.0 mm 0.00 in0.0 mm
10:20 AM 78.5°F25.8°C 61.5°F16.4°C 56% 4.4 mph SW7.1 kmh SW 13.0 mph20.9 kmh 30.00 in1015.9 mb 0.00 in0.0 mm 0.00 in0.0 mm 0.00 in0.0 mm
10:25 AM 79.2°F26.2°C 61.6°F16.4°C 55% 4.8 mph SW7.7 kmh SW 9.0 mph14.5 kmh 30.00 in1015.9 mb 0.00 in0.0 mm 0.00 in0.0 mm 0.00 in0.0 mm
10:30 AM 79.3°F26.3°C 62.2°F16.8°C 56% 6.3 mph WSW10.1 kmh WSW 14.0 mph22.5 kmh 30.00 in1015.9 mb 0.00 in0.0 mm 0.00 in0.0 mm 0.00 in0.0 mm
10:35 AM 79.4°F26.3°C 62.8°F17.1°C 57% 4.9 mph SW7.9 kmh SW 14.0 mph22.5 kmh 30.00 in1015.9 mb 0.00 in0.0 mm 0.00 in0.0 mm 0.00 in0.0 mm
10:40 AM 79.8°F26.6°C 62.7°F17.1°C 56% 6.1 mph SW9.8 kmh SW 12.0 mph19.3 kmh 29.99 in1015.6 mb 0.00 in0.0 mm 0.00 in0.0 mm 0.00 in0.0 mm
10:45 AM 80.2°F26.8°C 63.1°F17.3°C 56% 4.7 mph WSW7.6 kmh WSW 13.0 mph20.9 kmh 29.99 in1015.6 mb 0.00 in0.0 mm 0.00 in0.0 mm 0.00 in0.0 mm
10:50 AM 80.0°F26.7°C 62.9°F17.2°C 56% 8.0 mph SW12.9 kmh SW 13.0 mph20.9 kmh 29.99 in1015.6 mb 0.00 in0.0 mm 0.00 in0.0 mm 0.00 in0.0 mm
10:55 AM 80.3°F26.8°C 62.6°F17.0°C 55% 6.8 mph SW10.9 kmh SW 13.0 mph20.9 kmh 29.98 in1015.2 mb 0.00 in0.0 mm 0.00 in0.0 mm 0.00 in0.0 mm
11:00 AM 81.0°F27.2°C 63.8°F17.7°C 56% 6.2 mph SW10.0 kmh SW 12.0 mph19.3 kmh 29.98 in1015.2 mb 0.00 in0.0 mm 0.00 in0.0 mm 0.00 in0.0 mm
11:05 AM 81.3°F27.4°C 63.0°F17.2°C 54% 5.0 mph SW8.0 kmh SW 12.0 mph19.3 kmh 29.98 in1015.2 mb 0.00 in0.0 mm 0.00 in0.0 mm 0.00 in0.0 mm
11:10 AM 81.4°F27.4°C 63.7°F17.6°C 55% 6.2 mph SW10.0 kmh SW 14.0 mph22.5 kmh 29.98 in1015.2 mb 0.00 in0.0 mm 0.00 in0.0 mm 0.00 in0.0 mm
11:15 AM 81.6°F27.6°C 62.8°F17.1°C 53% 5.2 mph SW8.4 kmh SW 14.0 mph22.5 kmh 29.98 in1015.2 mb 0.00 in0.0 mm 0.00 in0.0 mm 0.00 in0.0 mm
11:20 AM 82.4°F28.0°C 63.5°F17.5°C 53% 5.3 mph WSW8.5 kmh WSW 11.0 mph17.7 kmh 29.98 in1015.2 mb 0.00 in0.0 mm 0.00 in0.0 mm 0.00 in0.0 mm
11:25 AM 82.3°F27.9°C 61.8°F16.6°C 50% 6.6 mph WSW10.6 kmh WSW 13.0 mph20.9 kmh 29.98 in1015.2 mb 0.00 in0.0 mm 0.00 in0.0 mm 0.00 in0.0 mm
11:30 AM 82.5°F28.1°C 62.0°F16.7°C 50% 6.1 mph WSW9.8 kmh WSW 15.0 mph24.1 kmh 29.98 in1015.2 mb 0.00 in0.0 mm 0.00 in0.0 mm 0.00 in0.0 mm
11:35 AM 83.0°F28.3°C 61.8°F16.6°C 49% 6.0 mph WSW9.7 kmh WSW 19.0 mph30.6 kmh 29.98 in1015.2 mb 0.00 in0.0 mm 0.00 in0.0 mm 0.00 in0.0 mm
11:40 AM 83.7°F28.7°C 61.9°F16.6°C 48% 6.7 mph W10.8 kmh W 19.0 mph30.6 kmh 29.98 in1015.2 mb 0.00 in0.0 mm 0.00 in0.0 mm 0.00 in0.0 mm
11:45 AM 83.9°F28.8°C 62.1°F16.7°C 48% 4.8 mph WSW7.7 kmh WSW 15.0 mph24.1 kmh 29.98 in1015.2 mb 0.00 in0.0 mm 0.00 in0.0 mm 0.00 in0.0 mm
11:50 AM 84.1°F28.9°C 62.8°F17.1°C 49% 5.3 mph W8.5 kmh W 13.0 mph20.9 kmh 29.98 in1015.2 mb 0.00 in0.0 mm 0.00 in0.0 mm 0.00 in0.0 mm
11:55 AM 83.9°F28.8°C 62.1°F16.7°C 48% 4.9 mph WSW7.9 kmh WSW 12.0 mph19.3 kmh 29.97 in1014.9 mb 0.00 in0.0 mm 0.00 in0.0 mm 0.00 in0.0 mm
12:00 PM 84.6°F29.2°C 63.3°F17.4°C 49% 4.3 mph SW6.9 kmh SW 13.0 mph20.9 kmh 29.97 in1014.9 mb 0.00 in0.0 mm 0.00 in0.0 mm 0.00 in0.0 mm
12:05 PM 84.8°F29.3°C 62.9°F17.2°C 48% 6.3 mph W10.1 kmh W 14.0 mph22.5 kmh 29.97 in1014.9 mb 0.00 in0.0 mm 0.00 in0.0 mm 0.00 in0.0 mm
12:10 PM 85.0°F29.4°C 63.7°F17.6°C 49% 5.9 mph SW9.5 kmh SW 14.0 mph22.5 kmh 29.97 in1014.9 mb 0.00 in0.0 mm 0.00 in0.0 mm 0.00 in0.0 mm
12:15 PM 84.8°F29.3°C 63.5°F17.5°C 49% 5.1 mph SW8.2 kmh SW 14.0 mph22.5 kmh 29.96 in1014.6 mb 0.00 in0.0 mm 0.00 in0.0 mm 0.00 in0.0 mm
12:20 PM 84.5°F29.2°C 62.6°F17.0°C 48% 5.5 mph SW8.9 kmh SW 12.0 mph19.3 kmh 29.96 in1014.6 mb 0.00 in0.0 mm 0.00 in0.0 mm 0.00 in0.0 mm
12:25 PM 85.1°F29.5°C 63.2°F17.3°C 48% 6.4 mph WSW10.3 kmh WSW 12.0 mph19.3 kmh 29.96 in1014.6 mb 0.00 in0.0 mm 0.00 in0.0 mm 0.00 in0.0 mm
12:30 PM 85.6°F29.8°C 63.6°F17.6°C 48% 5.2 mph WSW8.4 kmh WSW 12.0 mph19.3 kmh 29.96 in1014.6 mb 0.00 in0.0 mm 0.00 in0.0 mm 0.00 in0.0 mm
12:35 PM 85.7°F29.8°C 63.1°F17.3°C 47% 6.7 mph SW10.8 kmh SW 18.0 mph29.0 kmh 29.96 in1014.6 mb 0.00 in0.0 mm 0.00 in0.0 mm 0.00 in0.0 mm
12:40 PM 85.8°F29.9°C 63.8°F17.7°C 48% 6.5 mph WSW10.5 kmh WSW 20.0 mph32.2 kmh 29.96 in1014.6 mb 0.00 in0.0 mm 0.00 in0.0 mm 0.00 in0.0 mm
12:45 PM 86.2°F30.1°C 64.2°F17.9°C 48% 7.7 mph SW12.4 kmh SW 20.0 mph32.2 kmh 29.96 in1014.6 mb 0.00 in0.0 mm 0.00 in0.0 mm 0.00 in0.0 mm
12:50 PM 86.7°F30.4°C 65.2°F18.4°C 49% 5.6 mph WSW9.0 kmh WSW 17.0 mph27.4 kmh 29.96 in1014.6 mb 0.00 in0.0 mm 0.00 in0.0 mm 0.00 in0.0 mm
12:55 PM 86.5°F30.3°C 64.4°F18.0°C 48% 7.4 mph SW11.9 kmh SW 18.0 mph29.0 kmh 29.95 in1014.2 mb 0.00 in0.0 mm 0.00 in0.0 mm 0.00 in0.0 mm
01:00 PM 86.9°F30.5°C 65.4°F18.6°C 49% 6.0 mph W9.7 kmh W 18.0 mph29.0 kmh 29.95 in1014.2 mb 0.00 in0.0 mm 0.00 in0.0 mm 0.00 in0.0 mm
01:05 PM 86.6°F30.3°C 64.5°F18.1°C 48% 7.4 mph WSW11.9 kmh WSW 16.0 mph25.7 kmh 29.95 in1014.2 mb 0.00 in0.0 mm 0.00 in0.0 mm 0.00 in0.0 mm
01:10 PM 87.1°F30.6°C 66.2°F19.0°C 50% 5.9 mph WSW9.5 kmh WSW 16.0 mph25.7 kmh 29.95 in1014.2 mb 0.00 in0.0 mm 0.00 in0.0 mm 0.00 in0.0 mm
01:15 PM 87.3°F30.7°C 64.6°F18.1°C 47% 7.0 mph W11.3 kmh W 16.0 mph25.7 kmh 29.95 in1014.2 mb 0.00 in0.0 mm 0.00 in0.0 mm 0.00 in0.0 mm
01:20 PM 87.2°F30.7°C 65.1°F18.4°C 48% 5.5 mph SW8.9 kmh SW 16.0 mph25.7 kmh 29.95 in1014.2 mb 0.00 in0.0 mm 0.00 in0.0 mm 0.00 in0.0 mm
01:25 PM 87.5°F30.8°C 66.0°F18.9°C 49% 6.4 mph W10.3 kmh W 14.0 mph22.5 kmh 29.94 in1013.9 mb 0.00 in0.0 mm 0.00 in0.0 mm 0.00 in0.0 mm
01:30 PM 87.3°F30.7°C 65.2°F18.4°C 48% 7.9 mph WSW12.7 kmh WSW 14.0 mph22.5 kmh 29.94 in1013.9 mb 0.00 in0.0 mm 0.00 in0.0 mm 0.00 in0.0 mm
01:35 PM 87.4°F30.8°C 65.3°F18.5°C 48% 6.6 mph SW10.6 kmh SW 14.0 mph22.5 kmh 29.94 in1013.9 mb 0.00 in0.0 mm 0.00 in0.0 mm 0.00 in0.0 mm
01:40 PM 88.1°F31.2°C 65.9°F18.8°C 48% 5.6 mph SW9.0 kmh SW 18.0 mph29.0 kmh 29.93 in1013.5 mb 0.00 in0.0 mm 0.00 in0.0 mm 0.00 in0.0 mm
01:45 PM 88.1°F31.2°C 66.5°F19.2°C 49% 7.1 mph W11.4 kmh W 18.0 mph29.0 kmh 29.93 in1013.5 mb 0.00 in0.0 mm 0.00 in0.0 mm 0.00 in0.0 mm
01:50 PM 87.8°F31.0°C 65.6°F18.7°C 48% 5.9 mph WSW9.5 kmh WSW 13.0 mph20.9 kmh 29.93 in1013.5 mb 0.00 in0.0 mm 0.00 in0.0 mm 0.00 in0.0 mm
01:55 PM 88.0°F31.1°C 66.4°F19.1°C 49% 6.6 mph WSW10.6 kmh WSW 13.0 mph20.9 kmh 29.93 in1013.5 mb 0.00 in0.0 mm 0.00 in0.0 mm 0.00 in0.0 mm
02:00 PM 88.1°F31.2°C 66.5°F19.2°C 49% 5.4 mph SW8.7 kmh SW 13.0 mph20.9 kmh 29.92 in1013.2 mb 0.00 in0.0 mm 0.00 in0.0 mm 0.00 in0.0 mm
02:05 PM 87.8°F31.0°C 66.2°F19.0°C 49% 6.1 mph WSW9.8 kmh WSW 13.0 mph20.9 kmh 29.92 in1013.2 mb 0.00 in0.0 mm 0.00 in0.0 mm 0.00 in0.0 mm
02:10 PM 87.9°F31.1°C 65.7°F18.7°C 48% 7.2 mph SW11.6 kmh SW 15.0 mph24.1 kmh 29.92 in1013.2 mb 0.00 in0.0 mm 0.00 in0.0 mm 0.00 in0.0 mm
02:15 PM 88.1°F31.2°C 66.5°F19.2°C 49% 5.4 mph SW8.7 kmh SW 15.0 mph24.1 kmh 29.92 in1013.2 mb 0.00 in0.0 mm 0.00 in0.0 mm 0.00 in0.0 mm
02:20 PM 88.4°F31.3°C 66.2°F19.0°C 48% 5.9 mph WSW9.5 kmh WSW 13.0 mph20.9 kmh 29.92 in1013.2 mb 0.00 in0.0 mm 0.00 in0.0 mm 0.00 in0.0 mm
02:25 PM 88.8°F31.6°C 66.5°F19.2°C 48% 5.2 mph W8.4 kmh W 13.0 mph20.9 kmh 29.92 in1013.2 mb 0.00 in0.0 mm 0.00 in0.0 mm 0.00 in0.0 mm
02:30 PM 88.6°F31.4°C 65.7°F18.7°C 47% 7.5 mph W12.1 kmh W 15.0 mph24.1 kmh 29.91 in1012.9 mb 0.00 in0.0 mm 0.00 in0.0 mm 0.00 in0.0 mm
02:35 PM 88.2°F31.2°C 66.6°F19.2°C 49% 4.8 mph WSW7.7 kmh WSW 15.0 mph24.1 kmh 29.91 in1012.9 mb 0.00 in0.0 mm 0.00 in0.0 mm 0.00 in0.0 mm
02:40 PM 88.2°F31.2°C 66.0°F18.9°C 48% 6.6 mph W10.6 kmh W 14.0 mph22.5 kmh 29.91 in1012.9 mb 0.00 in0.0 mm 0.00 in0.0 mm 0.00 in0.0 mm
02:45 PM 87.7°F30.9°C 66.1°F18.9°C 49% 5.1 mph WSW8.2 kmh WSW 14.0 mph22.5 kmh 29.91 in1012.9 mb 0.00 in0.0 mm 0.00 in0.0 mm 0.00 in0.0 mm
02:50 PM 87.8°F31.0°C 66.8°F19.3°C 50% 5.8 mph WSW9.3 kmh WSW 13.0 mph20.9 kmh 29.91 in1012.9 mb 0.00 in0.0 mm 0.00 in0.0 mm 0.00 in0.0 mm
02:55 PM 87.5°F30.8°C 66.0°F18.9°C 49% 5.1 mph SW8.2 kmh SW 12.0 mph19.3 kmh 29.91 in1012.9 mb 0.00 in0.0 mm 0.00 in0.0 mm 0.00 in0.0 mm
03:00 PM 87.3°F30.7°C 66.4°F19.1°C 50% 6.3 mph WSW10.1 kmh WSW 16.0 mph25.7 kmh 29.91 in1012.9 mb 0.00 in0.0 mm 0.00 in0.0 mm 0.00 in0.0 mm
03:05 PM 87.2°F30.7°C 66.3°F19.1°C 50% 5.7 mph SW9.2 kmh SW 16.0 mph25.7 kmh 29.91 in1012.9 mb 0.00 in0.0 mm 0.00 in0.0 mm 0.00 in0.0 mm
03:10 PM 87.6°F30.9°C 67.2°F19.6°C 51% 5.7 mph W9.2 kmh W 11.0 mph17.7 kmh 29.91 in1012.9 mb 0.00 in0.0 mm 0.00 in0.0 mm 0.00 in0.0 mm
03:15 PM 87.5°F30.8°C 66.0°F18.9°C 49% 6.1 mph WSW9.8 kmh WSW 13.0 mph20.9 kmh 29.91 in1012.9 mb 0.00 in0.0 mm 0.00 in0.0 mm 0.00 in0.0 mm
03:20 PM 87.3°F30.7°C 65.8°F18.8°C 49% 6.6 mph SW10.6 kmh SW 13.0 mph20.9 kmh 29.91 in1012.9 mb 0.00 in0.0 mm 0.00 in0.0 mm 0.00 in0.0 mm
03:25 PM 87.3°F30.7°C 66.4°F19.1°C 50% 7.3 mph SW11.7 kmh SW 15.0 mph24.1 kmh 29.91 in1012.9 mb 0.00 in0.0 mm 0.00 in0.0 mm 0.00 in0.0 mm
03:30 PM 87.5°F30.8°C 65.4°F18.6°C 48% 5.8 mph WSW9.3 kmh WSW 15.0 mph24.1 kmh 29.90 in1012.5 mb 0.00 in0.0 mm 0.00 in0.0 mm 0.00 in0.0 mm
03:35 PM 88.5°F31.4°C 66.3°F19.1°C 48% 5.0 mph WSW8.0 kmh WSW 15.0 mph24.1 kmh 29.90 in1012.5 mb 0.00 in0.0 mm 0.00 in0.0 mm 0.00 in0.0 mm
03:40 PM 88.1°F31.2°C 67.1°F19.5°C 50% 5.7 mph WSW9.2 kmh WSW 13.0 mph20.9 kmh 29.90 in1012.5 mb 0.00 in0.0 mm 0.00 in0.0 mm 0.00 in0.0 mm
03:45 PM 88.3°F31.3°C 66.7°F19.3°C 49% 6.4 mph WSW10.3 kmh WSW 13.0 mph20.9 kmh 29.90 in1012.5 mb 0.00 in0.0 mm 0.00 in0.0 mm 0.00 in0.0 mm
03:50 PM 87.4°F30.8°C 65.9°F18.8°C 49% 5.7 mph WSW9.2 kmh WSW 13.0 mph20.9 kmh 29.90 in1012.5 mb 0.00 in0.0 mm 0.00 in0.0 mm 0.00 in0.0 mm
03:55 PM 87.0°F30.6°C 66.1°F18.9°C 50% 6.3 mph WSW10.1 kmh WSW 12.0 mph19.3 kmh 29.89 in1012.2 mb 0.00 in0.0 mm 0.00 in0.0 mm 0.00 in0.0 mm
04:00 PM 88.1°F31.2°C 67.1°F19.5°C 50% 5.5 mph WSW8.9 kmh WSW 12.0 mph19.3 kmh 29.89 in1012.2 mb 0.00 in0.0 mm 0.00 in0.0 mm 0.00 in0.0 mm
04:05 PM 88.3°F31.3°C 67.3°F19.6°C 50% 5.9 mph WSW9.5 kmh WSW 13.0 mph20.9 kmh 29.89 in1012.2 mb 0.00 in0.0 mm 0.00 in0.0 mm 0.00 in0.0 mm
04:10 PM 87.7°F30.9°C 66.1°F18.9°C 49% 6.7 mph SW10.8 kmh SW 13.0 mph20.9 kmh 29.89 in1012.2 mb 0.00 in0.0 mm 0.00 in0.0 mm 0.00 in0.0 mm
04:15 PM 87.9°F31.1°C 66.9°F19.4°C 50% 6.6 mph SW10.6 kmh SW 16.0 mph25.7 kmh 29.88 in1011.9 mb 0.00 in0.0 mm 0.00 in0.0 mm 0.00 in0.0 mm
04:20 PM 88.0°F31.1°C 67.6°F19.8°C 51% 5.7 mph SW9.2 kmh SW 16.0 mph25.7 kmh 29.88 in1011.9 mb 0.00 in0.0 mm 0.00 in0.0 mm 0.00 in0.0 mm
04:25 PM 87.8°F31.0°C 66.8°F19.3°C 50% 6.2 mph WSW10.0 kmh WSW 14.0 mph22.5 kmh 29.88 in1011.9 mb 0.00 in0.0 mm 0.00 in0.0 mm 0.00 in0.0 mm
04:30 PM 87.7°F30.9°C 66.7°F19.3°C 50% 5.6 mph SW9.0 kmh SW 14.0 mph22.5 kmh 29.88 in1011.9 mb 0.00 in0.0 mm 0.00 in0.0 mm 0.00 in0.0 mm
04:35 PM 87.3°F30.7°C 66.9°F19.4°C 51% 6.3 mph SW10.1 kmh SW 14.0 mph22.5 kmh 29.88 in1011.9 mb 0.00 in0.0 mm 0.00 in0.0 mm 0.00 in0.0 mm
04:40 PM 87.0°F30.6°C 66.6°F19.2°C 51% 5.6 mph SW9.0 kmh SW 13.0 mph20.9 kmh 29.88 in1011.9 mb 0.00 in0.0 mm 0.00 in0.0 mm 0.00 in0.0 mm
04:45 PM 87.8°F31.0°C 67.4°F19.7°C 51% 6.1 mph SW9.8 kmh SW 15.0 mph24.1 kmh 29.88 in1011.9 mb 0.00 in0.0 mm 0.00 in0.0 mm 0.00 in0.0 mm
04:50 PM 88.1°F31.2°C 66.5°F19.2°C 49% 5.7 mph SW9.2 kmh SW 15.0 mph24.1 kmh 29.88 in1011.9 mb 0.00 in0.0 mm 0.00 in0.0 mm 0.00 in0.0 mm
04:55 PM 88.2°F31.2°C 67.2°F19.6°C 50% 5.7 mph WSW9.2 kmh WSW 14.0 mph22.5 kmh 29.88 in1011.9 mb 0.00 in0.0 mm 0.00 in0.0 mm 0.00 in0.0 mm
05:00 PM 88.1°F31.2°C 66.5°F19.2°C 49% 6.3 mph SW10.1 kmh SW 14.0 mph22.5 kmh 29.87 in1011.5 mb 0.00 in0.0 mm 0.00 in0.0 mm 0.00 in0.0 mm
05:05 PM 87.8°F31.0°C 66.8°F19.3°C 50% 5.4 mph SW8.7 kmh SW 13.0 mph20.9 kmh 29.87 in1011.5 mb 0.00 in0.0 mm 0.00 in0.0 mm 0.00 in0.0 mm
05:10 PM 87.9°F31.1°C 66.9°F19.4°C 50% 5.4 mph SW8.7 kmh SW 12.0 mph19.3 kmh 29.87 in1011.5 mb 0.00 in0.0 mm 0.00 in0.0 mm 0.00 in0.0 mm
05:15 PM 87.7°F30.9°C 66.1°F18.9°C 49% 4.8 mph SW7.7 kmh SW 15.0 mph24.1 kmh 29.87 in1011.5 mb 0.00 in0.0 mm 0.00 in0.0 mm 0.00 in0.0 mm
05:20 PM 87.3°F30.7°C 66.4°F19.1°C 50% 5.7 mph WSW9.2 kmh WSW 15.0 mph24.1 kmh 29.86 in1011.2 mb 0.00 in0.0 mm 0.00 in0.0 mm 0.00 in0.0 mm
05:25 PM 87.2°F30.7°C 66.8°F19.3°C 51% 6.9 mph SW11.1 kmh SW 17.0 mph27.4 kmh 29.87 in1011.5 mb 0.00 in0.0 mm 0.00 in0.0 mm 0.00 in0.0 mm
05:30 PM 87.2°F30.7°C 66.3°F19.1°C 50% 6.1 mph SW9.8 kmh SW 17.0 mph27.4 kmh 29.86 in1011.2 mb 0.00 in0.0 mm 0.00 in0.0 mm 0.00 in0.0 mm
05:35 PM 87.2°F30.7°C 66.8°F19.3°C 51% 5.6 mph SW9.0 kmh SW 13.0 mph20.9 kmh 29.86 in1011.2 mb 0.00 in0.0 mm 0.00 in0.0 mm 0.00 in0.0 mm
05:40 PM 87.0°F30.6°C 66.6°F19.2°C 51% 7.9 mph SW12.7 kmh SW 13.0 mph20.9 kmh 29.86 in1011.2 mb 0.00 in0.0 mm 0.00 in0.0 mm 0.00 in0.0 mm
05:45 PM 87.0°F30.6°C 66.6°F19.2°C 51% 5.8 mph SW9.3 kmh SW 14.0 mph22.5 kmh 29.86 in1011.2 mb 0.00 in0.0 mm 0.00 in0.0 mm 0.00 in0.0 mm
05:50 PM 87.2°F30.7°C 66.3°F19.1°C 50% 7.0 mph SW11.3 kmh SW 18.0 mph29.0 kmh 29.85 in1010.8 mb 0.00 in0.0 mm 0.00 in0.0 mm 0.00 in0.0 mm
05:55 PM 87.2°F30.7°C 66.3°F19.1°C 50% 6.1 mph SW9.8 kmh SW 18.0 mph29.0 kmh 29.85 in1010.8 mb 0.00 in0.0 mm 0.00 in0.0 mm 0.00 in0.0 mm
06:00 PM 87.3°F30.7°C 65.8°F18.8°C 49% 7.9 mph SW12.7 kmh SW 16.0 mph25.7 kmh 29.85 in1010.8 mb 0.00 in0.0 mm 0.00 in0.0 mm 0.00 in0.0 mm
06:05 PM 87.5°F30.8°C 66.5°F19.2°C 50% 5.9 mph SW9.5 kmh SW 16.0 mph25.7 kmh 29.85 in1010.8 mb 0.00 in0.0 mm 0.00 in0.0 mm 0.00 in0.0 mm
06:10 PM 87.9°F31.1°C 66.3°F19.1°C 49% 6.4 mph SW10.3 kmh SW 18.0 mph29.0 kmh 29.85 in1010.8 mb 0.00 in0.0 mm 0.00 in0.0 mm 0.00 in0.0 mm
06:15 PM 88.6°F31.4°C 67.0°F19.4°C 49% 6.4 mph SW10.3 kmh SW 18.0 mph29.0 kmh 29.85 in1010.8 mb 0.00 in0.0 mm 0.00 in0.0 mm 0.00 in0.0 mm
06:20 PM 88.9°F31.6°C 66.6°F19.2°C 48% 8.1 mph SW13.0 kmh SW 16.0 mph25.7 kmh 29.85 in1010.8 mb 0.00 in0.0 mm 0.00 in0.0 mm 0.00 in0.0 mm
06:25 PM 89.0°F31.7°C 66.7°F19.3°C 48% 6.3 mph SW10.1 kmh SW 21.0 mph33.8 kmh 29.84 in1010.5 mb 0.00 in0.0 mm 0.00 in0.0 mm 0.00 in0.0 mm
06:30 PM 88.4°F31.3°C 66.2°F19.0°C 48% 5.6 mph SW9.0 kmh SW 21.0 mph33.8 kmh 29.84 in1010.5 mb 0.00 in0.0 mm 0.00 in0.0 mm 0.00 in0.0 mm
06:35 PM 87.9°F31.1°C 65.7°F18.7°C 48% 7.6 mph SW12.2 kmh SW 19.0 mph30.6 kmh 29.84 in1010.5 mb 0.00 in0.0 mm 0.00 in0.0 mm 0.00 in0.0 mm
06:40 PM 87.4°F30.8°C 65.9°F18.8°C 49% 7.1 mph SW11.4 kmh SW 19.0 mph30.6 kmh 29.84 in1010.5 mb 0.00 in0.0 mm 0.00 in0.0 mm 0.00 in0.0 mm
06:45 PM 87.4°F30.8°C 65.9°F18.8°C 49% 5.9 mph SW9.5 kmh SW 15.0 mph24.1 kmh 29.84 in1010.5 mb 0.00 in0.0 mm 0.00 in0.0 mm 0.00 in0.0 mm
06:50 PM 87.5°F30.8°C 66.0°F18.9°C 49% 7.1 mph SW11.4 kmh SW 15.0 mph24.1 kmh 29.84 in1010.5 mb 0.00 in0.0 mm 0.00 in0.0 mm 0.00 in0.0 mm
06:55 PM 87.2°F30.7°C 66.3°F19.1°C 50% 7.1 mph SW11.4 kmh SW 14.0 mph22.5 kmh 29.84 in1010.5 mb 0.00 in0.0 mm 0.00 in0.0 mm 0.00 in0.0 mm
07:00 PM 86.9°F30.5°C 66.6°F19.2°C 51% 4.8 mph SW7.7 kmh SW 11.0 mph17.7 kmh 29.84 in1010.5 mb 0.00 in0.0 mm 0.00 in0.0 mm 0.00 in0.0 mm
07:05 PM 86.7°F30.4°C 65.8°F18.8°C 50% 5.9 mph SW9.5 kmh SW 13.0 mph20.9 kmh 29.84 in1010.5 mb 0.00 in0.0 mm 0.00 in0.0 mm 0.00 in0.0 mm
07:10 PM 86.9°F30.5°C 66.6°F19.2°C 51% 5.2 mph SW8.4 kmh SW 15.0 mph24.1 kmh 29.84 in1010.5 mb 0.00 in0.0 mm 0.00 in0.0 mm 0.00 in0.0 mm
07:15 PM 87.1°F30.6°C 66.2°F19.0°C 50% 4.4 mph SW7.1 kmh SW 15.0 mph24.1 kmh 29.84 in1010.5 mb 0.00 in0.0 mm 0.00 in0.0 mm 0.00 in0.0 mm
07:20 PM 86.9°F30.5°C 66.6°F19.2°C 51% 4.6 mph SW7.4 kmh SW 12.0 mph19.3 kmh 29.84 in1010.5 mb 0.00 in0.0 mm 0.00 in0.0 mm 0.00 in0.0 mm
07:25 PM 86.8°F30.4°C 66.5°F19.2°C 51% 5.3 mph SW8.5 kmh SW 11.0 mph17.7 kmh 29.84 in1010.5 mb 0.00 in0.0 mm 0.00 in0.0 mm 0.00 in0.0 mm
07:30 PM 86.5°F30.3°C 65.6°F18.7°C 50% 5.8 mph SW9.3 kmh SW 11.0 mph17.7 kmh 29.84 in1010.5 mb 0.00 in0.0 mm 0.00 in0.0 mm 0.00 in0.0 mm
07:35 PM 86.1°F30.1°C 65.8°F18.8°C 51% 3.9 mph SW6.3 kmh SW 11.0 mph17.7 kmh 29.84 in1010.5 mb 0.00 in0.0 mm 0.00 in0.0 mm 0.00 in0.0 mm
07:40 PM 86.2°F30.1°C 65.3°F18.5°C 50% 6.1 mph SW9.8 kmh SW 12.0 mph19.3 kmh 29.84 in1010.5 mb 0.00 in0.0 mm 0.00 in0.0 mm 0.00 in0.0 mm
07:45 PM 86.1°F30.1°C 65.8°F18.8°C 51% 4.4 mph SW7.1 kmh SW 12.0 mph19.3 kmh 29.84 in1010.5 mb 0.00 in0.0 mm 0.00 in0.0 mm 0.00 in0.0 mm
07:50 PM 85.8°F29.9°C 66.1°F18.9°C 52% 3.8 mph SW6.1 kmh SW 7.0 mph11.3 kmh 29.84 in1010.5 mb 0.00 in0.0 mm 0.00 in0.0 mm 0.00 in0.0 mm
07:55 PM 85.6°F29.8°C 65.9°F18.8°C 52% 5.5 mph SW8.9 kmh SW 11.0 mph17.7 kmh 29.84 in1010.5 mb 0.00 in0.0 mm 0.00 in0.0 mm 0.00 in0.0 mm
08:00 PM 85.6°F29.8°C 65.9°F18.8°C 52% 5.5 mph SW8.9 kmh SW 11.0 mph17.7 kmh 29.84 in1010.5 mb 0.00 in0.0 mm 0.00 in0.0 mm 0.00 in0.0 mm
08:05 PM 85.4°F29.7°C 65.7°F18.7°C 52% 4.5 mph SW7.2 kmh SW 11.0 mph17.7 kmh 29.84 in1010.5 mb 0.00 in0.0 mm 0.00 in0.0 mm 0.00 in0.0 mm
08:10 PM 85.3°F29.6°C 65.6°F18.7°C 52% 5.0 mph SW8.0 kmh SW 10.0 mph16.1 kmh 29.83 in1010.2 mb 0.00 in0.0 mm 0.00 in0.0 mm 0.00 in0.0 mm
08:15 PM 85.2°F29.6°C 66.1°F18.9°C 53% 6.2 mph SW10.0 kmh SW 14.0 mph22.5 kmh 29.84 in1010.5 mb 0.00 in0.0 mm 0.00 in0.0 mm 0.00 in0.0 mm
08:20 PM 85.0°F29.4°C 65.9°F18.8°C 53% 5.4 mph SW8.7 kmh SW 14.0 mph22.5 kmh 29.83 in1010.2 mb 0.00 in0.0 mm 0.00 in0.0 mm 0.00 in0.0 mm
08:25 PM 84.6°F29.2°C 66.1°F18.9°C 54% 4.8 mph SW7.7 kmh SW 11.0 mph17.7 kmh 29.83 in1010.2 mb 0.00 in0.0 mm 0.00 in0.0 mm 0.00 in0.0 mm
08:30 PM 84.3°F29.1°C 66.3°F19.1°C 55% 5.9 mph SW9.5 kmh SW 11.0 mph17.7 kmh 29.83 in1010.2 mb 0.00 in0.0 mm 0.00 in0.0 mm 0.00 in0.0 mm
08:35 PM 84.1°F28.9°C 66.7°F19.3°C 56% 5.2 mph SW8.4 kmh SW 11.0 mph17.7 kmh 29.83 in1010.2 mb 0.00 in0.0 mm 0.00 in0.0 mm 0.00 in0.0 mm
08:40 PM 83.9°F28.8°C 66.5°F19.2°C 56% 4.8 mph SW7.7 kmh SW 10.0 mph16.1 kmh 29.83 in1010.2 mb 0.00 in0.0 mm 0.00 in0.0 mm 0.00 in0.0 mm
08:45 PM 83.8°F28.8°C 66.4°F19.1°C 56% 4.9 mph SW7.9 kmh SW 12.0 mph19.3 kmh 29.83 in1010.2 mb 0.00 in0.0 mm 0.00 in0.0 mm 0.00 in0.0 mm
08:50 PM 83.7°F28.7°C 66.3°F19.1°C 56% 5.2 mph SW8.4 kmh SW 12.0 mph19.3 kmh 29.83 in1010.2 mb 0.00 in0.0 mm 0.00 in0.0 mm 0.00 in0.0 mm
08:55 PM 83.6°F28.7°C 66.2°F19.0°C 56% 5.4 mph SW8.7 kmh SW 11.0 mph17.7 kmh 29.83 in1010.2 mb 0.00 in0.0 mm 0.00 in0.0 mm 0.00 in0.0 mm
09:00 PM 83.4°F28.6°C 66.5°F19.2°C 57% 4.5 mph SW7.2 kmh SW 11.0 mph17.7 kmh 29.84 in1010.5 mb 0.00 in0.0 mm 0.00 in0.0 mm 0.00 in0.0 mm
09:05 PM 83.3°F28.5°C 66.4°F19.1°C 57% 6.1 mph SW9.8 kmh SW 13.0 mph20.9 kmh 29.83 in1010.2 mb 0.00 in0.0 mm 0.00 in0.0 mm 0.00 in0.0 mm
09:10 PM 83.1°F28.4°C 66.3°F19.1°C 57% 5.4 mph SW8.7 kmh SW 13.0 mph20.9 kmh 29.83 in1010.2 mb 0.00 in0.0 mm 0.00 in0.0 mm 0.00 in0.0 mm
09:15 PM 83.0°F28.3°C 66.7°F19.3°C 58% 5.0 mph SW8.0 kmh SW 12.0 mph19.3 kmh 29.83 in1010.2 mb 0.00 in0.0 mm 0.00 in0.0 mm 0.00 in0.0 mm
09:20 PM 82.8°F28.2°C 66.5°F19.2°C 58% 5.5 mph SW8.9 kmh SW 11.0 mph17.7 kmh 29.83 in1010.2 mb 0.00 in0.0 mm 0.00 in0.0 mm 0.00 in0.0 mm
09:25 PM 82.7°F28.2°C 66.4°F19.1°C 58% 4.7 mph SW7.6 kmh SW 10.0 mph16.1 kmh 29.83 in1010.2 mb 0.00 in0.0 mm 0.00 in0.0 mm 0.00 in0.0 mm
09:30 PM 82.6°F28.1°C 66.3°F19.1°C 58% 5.4 mph SW8.7 kmh SW 10.0 mph16.1 kmh 29.83 in1010.2 mb 0.00 in0.0 mm 0.00 in0.0 mm 0.00 in0.0 mm
09:35 PM 82.4°F28.0°C 66.6°F19.2°C 59% 5.7 mph SW9.2 kmh SW 11.0 mph17.7 kmh 29.83 in1010.2 mb 0.00 in0.0 mm 0.00 in0.0 mm 0.00 in0.0 mm
09:40 PM 82.3°F27.9°C 66.5°F19.2°C 59% 4.5 mph SW7.2 kmh SW 11.0 mph17.7 kmh 29.83 in1010.2 mb 0.00 in0.0 mm 0.00 in0.0 mm 0.00 in0.0 mm
09:45 PM 82.2°F27.9°C 66.4°F19.1°C 59% 5.2 mph SW8.4 kmh SW 11.0 mph17.7 kmh 29.84 in1010.5 mb 0.00 in0.0 mm 0.00 in0.0 mm 0.00 in0.0 mm
09:50 PM 82.1°F27.8°C 66.3°F19.1°C 59% 4.8 mph SW7.7 kmh SW 11.0 mph17.7 kmh 29.84 in1010.5 mb 0.00 in0.0 mm 0.00 in0.0 mm 0.00 in0.0 mm
09:55 PM 82.1°F27.8°C 66.3°F19.1°C 59% 5.7 mph SW9.2 kmh SW 12.0 mph19.3 kmh 29.84 in1010.5 mb 0.00 in0.0 mm 0.00 in0.0 mm 0.00 in0.0 mm
10:00 PM 82.1°F27.8°C 66.3°F19.1°C 59% 5.1 mph SW8.2 kmh SW 12.0 mph19.3 kmh 29.84 in1010.5 mb 0.00 in0.0 mm 0.00 in0.0 mm 0.00 in0.0 mm
10:05 PM 82.0°F27.8°C 66.2°F19.0°C 59% 4.8 mph SW7.7 kmh SW 12.0 mph19.3 kmh 29.84 in1010.5 mb 0.00 in0.0 mm 0.00 in0.0 mm 0.00 in0.0 mm
10:10 PM 81.8°F27.7°C 66.0°F18.9°C 59% 3.9 mph SW6.3 kmh SW 9.0 mph14.5 kmh 29.85 in1010.8 mb 0.00 in0.0 mm 0.00 in0.0 mm 0.00 in0.0 mm
10:15 PM 81.7°F27.6°C 66.0°F18.9°C 59% 4.1 mph SW6.6 kmh SW 9.0 mph14.5 kmh 29.85 in1010.8 mb 0.00 in0.0 mm 0.00 in0.0 mm 0.00 in0.0 mm
10:20 PM 81.4°F27.4°C 66.2°F19.0°C 60% 3.8 mph SW6.1 kmh SW 9.0 mph14.5 kmh 29.85 in1010.8 mb 0.00 in0.0 mm 0.00 in0.0 mm 0.00 in0.0 mm
10:25 PM 81.4°F27.4°C 66.2°F19.0°C 60% 3.7 mph SW6.0 kmh SW 9.0 mph14.5 kmh 29.85 in1010.8 mb 0.00 in0.0 mm 0.00 in0.0 mm 0.00 in0.0 mm
10:30 PM 81.4°F27.4°C 66.2°F19.0°C 60% 4.7 mph SW7.6 kmh SW 10.0 mph16.1 kmh 29.86 in1011.2 mb 0.00 in0.0 mm 0.00 in0.0 mm 0.00 in0.0 mm
10:35 PM 81.3°F27.4°C 66.1°F18.9°C 60% 4.1 mph SW6.6 kmh SW 10.0 mph16.1 kmh 29.86 in1011.2 mb 0.00 in0.0 mm 0.00 in0.0 mm 0.00 in0.0 mm
10:40 PM 81.3°F27.4°C 65.6°F18.7°C 59% 5.3 mph SW8.5 kmh SW 11.0 mph17.7 kmh 29.86 in1011.2 mb 0.00 in0.0 mm 0.00 in0.0 mm 0.00 in0.0 mm
10:45 PM 81.3°F27.4°C 65.6°F18.7°C 59% 4.8 mph SW7.7 kmh SW 11.0 mph17.7 kmh 29.86 in1011.2 mb 0.00 in0.0 mm 0.00 in0.0 mm 0.00 in0.0 mm
10:50 PM 81.2°F27.3°C 65.5°F18.6°C 59% 3.8 mph SW6.1 kmh SW 11.0 mph17.7 kmh 29.86 in1011.2 mb 0.00 in0.0 mm 0.00 in0.0 mm 0.00 in0.0 mm
10:55 PM 81.1°F27.3°C 65.4°F18.6°C 59% 4.4 mph SW7.1 kmh SW 14.0 mph22.5 kmh 29.86 in1011.2 mb 0.00 in0.0 mm 0.00 in0.0 mm 0.00 in0.0 mm
11:00 PM 81.0°F27.2°C 65.3°F18.5°C 59% 3.2 mph SW5.1 kmh SW 14.0 mph22.5 kmh 29.86 in1011.2 mb 0.00 in0.0 mm 0.00 in0.0 mm 0.00 in0.0 mm
11:05 PM 81.0°F27.2°C 65.3°F18.5°C 59% 3.8 mph SW6.1 kmh SW 10.0 mph16.1 kmh 29.86 in1011.2 mb 0.00 in0.0 mm 0.00 in0.0 mm 0.00 in0.0 mm
11:10 PM 81.0°F27.2°C 65.3°F18.5°C 59% 3.7 mph SW6.0 kmh SW 10.0 mph16.1 kmh 29.86 in1011.2 mb 0.00 in0.0 mm 0.00 in0.0 mm 0.00 in0.0 mm
11:15 PM 80.9°F27.2°C 65.2°F18.4°C 59% 3.5 mph SW5.6 kmh SW 9.0 mph14.5 kmh 29.86 in1011.2 mb 0.00 in0.0 mm 0.00 in0.0 mm 0.00 in0.0 mm
11:20 PM 80.9°F27.2°C 65.2°F18.4°C 59% 3.9 mph SW6.3 kmh SW 12.0 mph19.3 kmh 29.87 in1011.5 mb 0.00 in0.0 mm 0.00 in0.0 mm 0.00 in0.0 mm
11:25 PM 80.9°F27.2°C 64.7°F18.2°C 58% 4.9 mph SW7.9 kmh SW 13.0 mph20.9 kmh 29.86 in1011.2 mb 0.00 in0.0 mm 0.00 in0.0 mm 0.00 in0.0 mm
11:30 PM 80.9°F27.2°C 64.7°F18.2°C 58% 4.1 mph SW6.6 kmh SW 13.0 mph20.9 kmh 29.86 in1011.2 mb 0.00 in0.0 mm 0.00 in0.0 mm 0.00 in0.0 mm
11:35 PM 80.8°F27.1°C 64.6°F18.1°C 58% 4.1 mph SW6.6 kmh SW 8.0 mph12.9 kmh 29.86 in1011.2 mb 0.00 in0.0 mm 0.00 in0.0 mm 0.00 in0.0 mm
11:40 PM 80.8°F27.1°C 64.6°F18.1°C 58% 4.6 mph SW7.4 kmh SW 10.0 mph16.1 kmh 29.86 in1011.2 mb 0.00 in0.0 mm 0.00 in0.0 mm 0.00 in0.0 mm
11:45 PM 80.8°F27.1°C 64.6°F18.1°C 58% 3.8 mph SW6.1 kmh SW 10.0 mph16.1 kmh 29.86 in1011.2 mb 0.00 in0.0 mm 0.00 in0.0 mm 0.00 in0.0 mm
11:50 PM 80.7°F27.1°C 64.5°F18.1°C 58% 4.4 mph SW7.1 kmh SW 11.0 mph17.7 kmh 29.86 in1011.2 mb 0.00 in0.0 mm 0.00 in0.0 mm 0.00 in0.0 mm
11:55 PM 80.6°F27.0°C 64.4°F18.0°C 58% 4.6 mph WSW7.4 kmh WSW 11.0 mph17.7 kmh 29.85 in1010.8 mb 0.00 in0.0 mm 0.00 in0.0 mm 0.00 in0.0 mm